createdAt,value
2022-09-21T00:01:36.772Z,50.90
2022-09-21T00:04:16.790Z,51.00
2022-09-21T00:07:03.682Z,51.00
2022-09-21T00:09:50.682Z,51.20
2022-09-21T00:12:37.707Z,51.20
2022-09-21T00:15:17.970Z,51.30
2022-09-21T00:18:05.706Z,51.20
2022-09-21T00:20:55.682Z,51.30
2022-09-21T00:23:43.709Z,51.40
2022-09-21T00:26:39.682Z,51.50
2022-09-21T00:29:26.680Z,51.50
2022-09-21T00:32:13.706Z,51.50
2022-09-21T00:34:54.233Z,51.30
2022-09-21T00:37:41.687Z,51.30
2022-09-21T00:40:22.306Z,51.30
2022-09-21T00:43:23.686Z,51.40
2022-09-21T00:46:19.704Z,51.50
2022-09-21T00:49:00.759Z,51.40
2022-09-21T00:51:48.703Z,51.50
2022-09-21T00:54:33.826Z,51.60
2022-09-21T00:57:23.704Z,51.70
2022-09-21T01:00:08.663Z,51.70
2022-09-21T01:02:55.705Z,51.60
2022-09-21T01:05:42.690Z,51.60
2022-09-21T01:08:32.668Z,51.50
2022-09-21T01:11:42.708Z,51.50
2022-09-21T01:14:54.685Z,51.70
2022-09-21T01:17:57.782Z,51.80
2022-09-21T01:21:23.687Z,51.90
2022-09-21T01:24:25.685Z,52.00
2022-09-21T01:27:31.682Z,52.00
2022-09-21T01:30:27.697Z,51.90
2022-09-21T01:33:21.831Z,51.80
2022-09-21T01:36:14.701Z,51.90
2022-09-21T01:38:58.780Z,52.00
2022-09-21T01:41:48.704Z,52.00
2022-09-21T01:44:34.134Z,52.10
2022-09-21T01:47:22.682Z,52.10
2022-09-21T01:50:04.773Z,52.00
2022-09-21T01:53:01.701Z,52.00
2022-09-21T01:55:47.879Z,52.00
2022-09-21T01:58:47.683Z,52.00
2022-09-21T02:01:31.949Z,52.10
2022-09-21T02:04:20.706Z,52.00
2022-09-21T02:07:01.813Z,52.00
2022-09-21T02:09:48.628Z,52.00
2022-09-21T02:12:35.614Z,52.00
2022-09-21T02:15:22.637Z,51.90
2022-09-21T02:18:20.637Z,51.90
2022-09-21T02:21:11.678Z,51.80
2022-09-21T02:24:14.650Z,51.80
2022-09-21T02:27:23.625Z,51.90
2022-09-21T02:30:20.646Z,51.90
2022-09-21T02:33:29.715Z,51.90
2022-09-21T02:36:51.629Z,52.00
2022-09-21T02:40:11.702Z,51.90
2022-09-21T02:43:12.630Z,51.90
2022-09-21T02:45:58.692Z,51.90
2022-09-21T02:48:59.646Z,52.00
2022-09-21T02:51:53.644Z,52.00
2022-09-21T02:54:35.853Z,52.00
2022-09-21T02:57:23.635Z,51.90
2022-09-21T03:00:12.689Z,52.00
2022-09-21T03:02:53.629Z,51.90
2022-09-21T03:05:40.694Z,52.00
2022-09-21T03:08:21.642Z,52.00
2022-09-21T03:11:10.168Z,51.90
2022-09-21T03:13:50.668Z,52.90
2022-09-21T03:16:37.723Z,52.00
2022-09-21T03:19:18.665Z,52.00
2022-09-21T03:21:59.706Z,52.00
2022-09-21T03:24:52.636Z,51.90
2022-09-21T03:27:41.252Z,51.90
2022-09-21T03:30:20.638Z,52.00
2022-09-21T03:33:07.636Z,51.90
2022-09-21T03:35:47.703Z,51.90
2022-09-21T03:38:34.650Z,51.90
2022-09-21T03:41:15.236Z,51.90
2022-09-21T03:44:01.624Z,51.90
2022-09-21T03:46:48.637Z,52.00
2022-09-21T03:49:35.714Z,51.80
2022-09-21T03:52:15.653Z,51.90
2022-09-21T03:55:02.644Z,51.90
2022-09-21T03:57:50.628Z,51.80
2022-09-21T04:00:31.209Z,51.80
2022-09-21T04:03:18.639Z,51.70
2022-09-21T04:05:59.146Z,51.80
2022-09-21T04:08:45.644Z,51.90
2022-09-21T04:11:33.309Z,51.90
2022-09-21T04:14:12.632Z,51.80
2022-09-21T04:16:53.108Z,51.90
2022-09-21T04:19:39.649Z,51.90
2022-09-21T04:22:26.710Z,51.90
2022-09-21T04:25:07.632Z,51.80
2022-09-21T04:28:01.631Z,51.70
2022-09-21T04:30:48.721Z,51.60
2022-09-21T04:33:28.701Z,51.50
2022-09-21T04:36:15.633Z,51.50
2022-09-21T04:38:55.784Z,51.40
2022-09-21T04:41:42.652Z,51.30
2022-09-21T04:44:22.757Z,51.20
2022-09-21T04:47:09.654Z,51.20
2022-09-21T04:49:56.636Z,51.10
2022-09-21T04:52:43.655Z,51.10
2022-09-21T04:55:23.689Z,51.00
2022-09-21T04:58:10.653Z,51.10
2022-09-21T05:00:57.656Z,50.80
2022-09-21T05:03:44.714Z,50.80
2022-09-21T05:06:24.704Z,50.70
2022-09-21T05:09:30.636Z,50.70
2022-09-21T05:12:10.741Z,50.60
2022-09-21T05:14:57.647Z,50.60
2022-09-21T05:17:44.647Z,50.50
2022-09-21T05:20:25.402Z,50.50
2022-09-21T05:23:16.825Z,50.30
2022-09-21T05:26:04.690Z,50.20
2022-09-21T05:28:45.633Z,50.00
2022-09-21T05:31:42.708Z,50.10
2022-09-21T05:34:52.634Z,50.00
2022-09-21T05:38:00.861Z,50.00
2022-09-21T05:40:41.665Z,50.10
2022-09-21T05:43:28.719Z,50.00
2022-09-21T05:46:15.663Z,50.90
2022-09-21T05:49:05.020Z,50.00
2022-09-21T05:51:57.668Z,49.80
2022-09-21T05:54:57.694Z,50.00
2022-09-21T05:57:46.651Z,50.00
2022-09-21T06:00:39.682Z,49.90
2022-09-21T06:03:37.642Z,50.00
2022-09-21T06:06:25.645Z,50.00
2022-09-21T06:09:05.709Z,49.90
2022-09-21T06:11:52.641Z,50.80
2022-09-21T06:14:55.672Z,49.70
2022-09-21T06:17:42.657Z,49.60
2022-09-21T06:20:31.637Z,49.50
2022-09-21T06:23:20.740Z,49.50
2022-09-21T06:26:00.661Z,49.40
2022-09-21T06:28:47.718Z,49.40
2022-09-21T06:31:27.656Z,49.30
2022-09-21T06:34:14.651Z,49.30
2022-09-21T06:36:54.705Z,49.20
2022-09-21T06:39:41.650Z,49.10
2022-09-21T06:42:21.712Z,49.00
2022-09-21T06:45:09.645Z,49.10
2022-09-21T06:47:53.803Z,48.60
2022-09-21T06:50:40.669Z,48.30
2022-09-21T06:53:22.674Z,47.90
2022-09-21T06:56:14.678Z,47.50
2022-09-21T06:59:01.635Z,46.80
2022-09-21T07:01:48.779Z,46.30
2022-09-21T07:04:29.698Z,45.60
2022-09-21T07:07:16.678Z,45.10
2022-09-21T07:10:06.684Z,44.30
2022-09-21T07:12:53.628Z,44.00
2022-09-21T07:15:33.730Z,43.20
2022-09-21T07:18:21.646Z,42.80
2022-09-21T07:21:01.710Z,42.10
2022-09-21T07:23:48.642Z,41.70
2022-09-21T07:26:28.807Z,41.00
2022-09-21T07:29:22.662Z,40.30
2022-09-21T07:32:10.003Z,39.90
2022-09-21T07:34:49.671Z,39.20
2022-09-21T07:37:32.241Z,38.70
2022-09-21T07:40:21.887Z,38.20
2022-09-21T07:43:05.130Z,37.80
2022-09-21T07:45:51.718Z,37.20
2022-09-21T07:48:38.673Z,36.90
2022-09-21T07:51:21.725Z,36.40
2022-09-21T07:54:08.676Z,36.10
2022-09-21T07:57:08.330Z,35.70
2022-09-21T07:59:54.674Z,35.50
2022-09-21T08:02:47.603Z,35.20
2022-09-21T08:05:34.676Z,34.80
2022-09-21T08:08:16.839Z,35.50
2022-09-21T08:11:10.655Z,34.30
2022-09-21T08:13:57.737Z,34.00
2022-09-21T08:16:44.763Z,33.80
2022-09-21T08:19:27.873Z,33.50
2022-09-21T08:22:14.661Z,33.30
2022-09-21T08:24:57.070Z,33.10
2022-09-21T08:27:43.693Z,32.90
2022-09-21T08:30:23.719Z,32.60
2022-09-21T08:33:10.681Z,32.50
2022-09-21T08:36:01.703Z,32.30
2022-09-21T08:38:48.679Z,32.10
2022-09-21T08:42:05.687Z,32.00
2022-09-21T08:44:53.516Z,31.90
2022-09-21T08:47:55.677Z,31.90
2022-09-21T08:50:54.702Z,31.70
2022-09-21T08:53:59.692Z,31.60
2022-09-21T08:57:04.564Z,31.50
2022-09-21T08:59:50.804Z,31.40
2022-09-21T09:02:59.677Z,31.30
2022-09-21T09:06:05.744Z,31.30
2022-09-21T09:09:07.754Z,31.20
2022-09-21T09:12:23.678Z,31.10
2022-09-21T09:15:24.043Z,31.10
2022-09-21T09:18:31.682Z,31.00
2022-09-21T09:21:31.671Z,31.10
2022-09-21T09:24:30.695Z,31.00
2022-09-21T09:27:35.660Z,30.90
2022-09-21T09:30:29.690Z,30.90
2022-09-21T09:33:34.818Z,30.90
2022-09-21T09:36:40.174Z,30.80
2022-09-21T09:39:29.696Z,30.70
2022-09-21T09:42:53.688Z,30.60
2022-09-21T09:45:49.730Z,30.50
2022-09-21T09:48:42.681Z,30.40
2022-09-21T09:51:23.641Z,30.40
2022-09-21T09:54:10.285Z,30.40
2022-09-21T09:56:56.688Z,30.40
2022-09-21T09:59:48.433Z,30.30
2022-09-21T10:02:37.712Z,30.30
2022-09-21T10:05:29.749Z,30.30
2022-09-21T10:08:35.682Z,30.20
2022-09-21T10:11:17.826Z,30.30
2022-09-21T10:14:15.680Z,30.10
2022-09-21T10:16:58.038Z,30.20
2022-09-21T10:19:44.688Z,30.30
2022-09-21T10:22:26.745Z,30.20
2022-09-21T10:25:23.681Z,30.20
2022-09-21T10:28:17.673Z,30.20
2022-09-21T10:31:18.836Z,30.30
2022-09-21T10:34:14.272Z,30.30
2022-09-21T10:37:00.697Z,30.30
2022-09-21T10:39:46.784Z,30.30
2022-09-21T10:42:34.725Z,30.30
2022-09-21T10:45:32.800Z,31.50
2022-09-21T10:48:12.717Z,30.40
2022-09-21T10:51:01.710Z,30.80
2022-09-21T10:53:53.854Z,31.20
2022-09-21T10:56:41.751Z,31.70
2022-09-21T10:59:30.692Z,31.80
2022-09-21T11:02:33.001Z,32.10
2022-09-21T11:05:34.714Z,32.50
2022-09-21T11:08:28.712Z,32.90
2022-09-21T11:11:23.754Z,33.00
2022-09-21T11:14:38.720Z,33.10
2022-09-21T11:17:18.768Z,33.20
2022-09-21T11:20:16.714Z,33.40
2022-09-21T11:23:20.775Z,33.50
2022-09-21T11:26:27.715Z,33.60
2022-09-21T11:29:17.828Z,33.80
2022-09-21T11:32:19.698Z,33.80
2022-09-21T11:35:36.713Z,33.80
2022-09-21T11:38:46.747Z,34.00
2022-09-21T11:41:36.730Z,34.10
2022-09-21T11:44:29.684Z,34.10
2022-09-21T11:47:19.730Z,34.10
2022-09-21T11:50:33.887Z,34.10
2022-09-21T11:53:17.852Z,33.70
2022-09-21T11:56:48.696Z,33.80
2022-09-21T11:59:54.510Z,33.70
2022-09-21T12:02:58.726Z,34.00
2022-09-21T12:06:07.672Z,34.10
2022-09-21T12:09:18.702Z,33.60
2022-09-21T12:12:30.869Z,33.40
2022-09-21T12:15:27.728Z,33.20
2022-09-21T12:18:27.365Z,33.00
2022-09-21T12:21:35.731Z,32.90
2022-09-21T12:24:38.729Z,32.80
2022-09-21T12:27:42.747Z,32.70
2022-09-21T12:30:37.749Z,32.60
2022-09-21T12:33:33.141Z,32.50
2022-09-21T12:36:28.744Z,32.50
2022-09-21T12:39:56.332Z,32.50
2022-09-21T12:42:49.720Z,32.50
2022-09-21T12:45:41.826Z,32.50
2022-09-21T12:48:33.741Z,32.50
2022-09-21T12:51:40.725Z,32.50
2022-09-21T12:54:40.554Z,32.40
2022-09-21T13:01:11.968Z,32.30
2022-09-21T13:04:01.726Z,32.30
2022-09-21T13:07:20.976Z,32.30
2022-09-21T13:10:14.716Z,32.30
2022-09-21T13:13:02.140Z,32.30
2022-09-21T13:15:54.718Z,32.30
2022-09-21T13:18:43.786Z,32.50
2022-09-21T13:21:38.716Z,32.50
2022-09-21T13:24:44.746Z,32.50
2022-09-21T13:28:15.730Z,32.60
2022-09-21T13:31:39.955Z,32.60
2022-09-21T13:34:28.852Z,32.70
2022-09-21T13:37:21.740Z,32.70
2022-09-21T13:40:14.797Z,32.60
2022-09-21T13:43:16.488Z,32.80
2022-09-21T13:46:06.803Z,32.80
2022-09-21T13:48:53.248Z,32.80
2022-09-21T13:51:40.733Z,32.90
2022-09-21T13:54:34.146Z,32.90
2022-09-21T13:57:25.742Z,33.90
2022-09-21T14:00:19.907Z,32.90
2022-09-21T14:03:04.767Z,32.90
2022-09-21T14:05:54.744Z,33.00
2022-09-21T14:08:48.824Z,33.10
2022-09-21T14:11:43.737Z,33.30
2022-09-21T14:14:41.442Z,33.40
2022-09-21T14:17:47.762Z,33.30
2022-09-21T14:20:39.700Z,33.30
2022-09-21T14:23:30.761Z,33.40
2022-09-21T14:26:38.795Z,33.50
2022-09-21T14:29:43.762Z,33.40
2022-09-21T14:32:32.887Z,33.50
2022-09-21T14:35:24.832Z,33.60
2022-09-21T14:38:14.757Z,33.60
2022-09-21T14:41:07.898Z,33.60
2022-09-21T14:43:48.755Z,33.60
2022-09-21T14:47:04.846Z,33.70
2022-09-21T14:50:04.081Z,33.70
2022-09-21T14:53:29.011Z,33.70
2022-09-21T14:56:30.752Z,33.80
2022-09-21T14:59:29.708Z,33.80
2022-09-21T15:02:31.758Z,33.90
2022-09-21T15:05:50.616Z,33.90
2022-09-21T15:09:07.765Z,33.90
2022-09-21T15:11:59.169Z,34.00
2022-09-21T15:14:45.741Z,34.00
2022-09-21T15:17:35.810Z,34.10
2022-09-21T15:20:24.737Z,35.20
2022-09-21T15:23:25.760Z,34.10
2022-09-21T15:26:09.907Z,34.20
2022-09-21T15:29:18.281Z,34.30
2022-09-21T15:32:05.810Z,34.30
2022-09-21T15:34:45.772Z,34.40
2022-09-21T15:37:32.815Z,35.40
2022-09-21T15:40:27.853Z,34.40
2022-09-21T15:43:11.444Z,34.30
2022-09-21T15:46:08.749Z,34.30
2022-09-21T15:48:50.081Z,34.50
2022-09-21T15:51:47.758Z,34.40
2022-09-21T15:55:04.135Z,34.40
2022-09-21T15:57:46.749Z,34.60
2022-09-21T16:00:41.116Z,34.60
2022-09-21T16:03:29.817Z,34.70
2022-09-21T16:06:26.985Z,35.60
2022-09-21T16:09:39.748Z,34.70
2022-09-21T16:12:26.333Z,34.60
2022-09-21T16:15:38.753Z,34.60
2022-09-21T16:18:46.809Z,34.50
2022-09-21T16:21:39.773Z,34.40
2022-09-21T16:24:31.393Z,34.50
2022-09-21T16:27:11.775Z,34.60
2022-09-21T16:30:01.183Z,34.70
2022-09-21T16:32:40.763Z,34.60
2022-09-21T16:35:31.529Z,34.50
2022-09-21T16:38:21.750Z,34.40
2022-09-21T16:41:08.785Z,34.50
2022-09-21T16:43:50.788Z,34.50
2022-09-21T16:46:41.831Z,34.50
2022-09-21T16:49:29.978Z,34.50
2022-09-21T16:52:16.759Z,34.40
2022-09-21T16:54:58.528Z,34.40
2022-09-21T16:57:44.752Z,34.50
2022-09-21T17:00:25.866Z,35.60
2022-09-21T17:03:12.756Z,34.30
2022-09-21T17:05:59.768Z,34.30
2022-09-21T17:08:48.214Z,34.40
2022-09-21T17:11:27.757Z,34.30
2022-09-21T17:14:17.797Z,34.30
2022-09-21T17:17:03.927Z,34.40
2022-09-21T17:19:53.779Z,34.80
2022-09-21T17:22:33.832Z,35.30
2022-09-21T17:25:20.781Z,35.40
2022-09-21T17:28:00.821Z,35.60
2022-09-21T17:30:48.798Z,35.90
2022-09-21T17:33:29.101Z,36.20
2022-09-21T17:36:22.766Z,36.30
2022-09-21T17:39:09.789Z,36.70
2022-09-21T17:42:19.094Z,36.90
2022-09-21T17:45:08.797Z,37.30
2022-09-21T17:47:50.392Z,37.50
2022-09-21T17:50:39.766Z,37.60
2022-09-21T17:53:55.809Z,37.70
2022-09-21T17:57:04.788Z,37.90
2022-09-21T17:59:59.773Z,38.10
2022-09-21T18:02:39.886Z,38.40
2022-09-21T18:05:35.782Z,38.60
2022-09-21T18:08:15.826Z,39.10
2022-09-21T18:11:33.776Z,39.10
2022-09-21T18:14:25.836Z,39.20
2022-09-21T18:17:49.785Z,39.40
2022-09-21T18:20:54.064Z,39.60
2022-09-21T18:24:17.777Z,39.70
2022-09-21T18:27:04.781Z,39.90
2022-09-21T18:29:58.745Z,40.00
2022-09-21T18:32:59.790Z,40.20
2022-09-21T18:35:54.816Z,40.40
2022-09-21T18:38:56.786Z,40.60
2022-09-21T18:41:47.868Z,41.70
2022-09-21T18:44:45.789Z,40.80
2022-09-21T18:48:09.793Z,41.00
2022-09-21T18:51:26.789Z,41.20
2022-09-21T18:54:21.834Z,41.40
2022-09-21T18:57:02.797Z,41.50
2022-09-21T18:59:50.831Z,41.70
2022-09-21T19:02:30.874Z,43.10
2022-09-21T19:05:13.132Z,42.10
2022-09-21T19:08:22.777Z,42.30
2022-09-21T19:11:12.271Z,42.50
2022-09-21T19:14:31.780Z,42.60
2022-09-21T19:17:26.626Z,42.70
2022-09-21T19:20:33.785Z,42.80
2022-09-21T19:23:20.562Z,42.90
2022-09-21T19:26:18.785Z,43.00
2022-09-21T19:29:27.789Z,43.20
2022-09-21T19:32:22.780Z,43.30
2022-09-21T19:35:11.777Z,43.60
2022-09-21T19:38:00.781Z,43.60
2022-09-21T19:40:48.340Z,43.70
2022-09-21T19:43:53.798Z,43.70
2022-09-21T19:46:39.851Z,43.80
2022-09-21T19:49:29.780Z,43.70
2022-09-21T19:52:11.839Z,43.80
2022-09-21T19:55:17.792Z,43.90
2022-09-21T19:58:24.780Z,43.90
2022-09-21T20:01:11.974Z,44.00
2022-09-21T20:03:53.787Z,44.20
2022-09-21T20:06:54.269Z,44.30
2022-09-21T20:09:42.793Z,44.30
2022-09-21T20:12:38.796Z,44.40
2022-09-21T20:15:28.730Z,44.80
2022-09-21T20:18:37.815Z,44.80
2022-09-21T20:21:21.091Z,44.90
2022-09-21T20:24:09.790Z,45.00
2022-09-21T20:26:57.770Z,45.00
2022-09-21T20:29:46.845Z,45.00
2022-09-21T20:32:35.777Z,45.20
2022-09-21T20:35:17.429Z,45.30
2022-09-21T20:38:04.797Z,45.40
2022-09-21T20:40:45.771Z,45.50
2022-09-21T20:43:33.785Z,46.60
2022-09-21T20:46:20.885Z,45.60
2022-09-21T20:49:08.805Z,45.80
2022-09-21T20:51:55.785Z,45.80
2022-09-21T20:54:36.267Z,46.10
2022-09-21T20:57:23.803Z,46.10
2022-09-21T21:00:03.925Z,46.10
2022-09-21T21:02:50.796Z,46.10
2022-09-21T21:05:30.847Z,46.30
2022-09-21T21:08:17.806Z,46.30
2022-09-21T21:10:57.845Z,46.50
2022-09-21T21:13:44.813Z,46.50
2022-09-21T21:16:24.933Z,46.70
2022-09-21T21:19:11.805Z,46.80
2022-09-21T21:21:51.848Z,46.70
2022-09-21T21:24:47.798Z,46.70
2022-09-21T21:27:37.801Z,46.90
2022-09-21T21:30:31.811Z,46.80
2022-09-21T21:33:18.811Z,46.70
2022-09-21T21:35:58.848Z,46.70
2022-09-21T21:38:48.780Z,46.90
2022-09-21T21:41:30.880Z,47.00
2022-09-21T21:44:17.829Z,47.10
2022-09-21T21:47:06.188Z,48.10
2022-09-21T21:50:04.801Z,47.00
2022-09-21T21:52:45.222Z,47.10
2022-09-21T21:55:31.797Z,47.30
2022-09-21T21:58:11.969Z,47.50
2022-09-21T22:00:58.839Z,47.50
2022-09-21T22:03:38.898Z,47.60
2022-09-21T22:06:26.826Z,47.50
2022-09-21T22:09:07.842Z,47.60
2022-09-21T22:11:55.820Z,47.60
2022-09-21T22:14:35.860Z,47.60
2022-09-21T22:17:22.838Z,47.60
2022-09-21T22:20:02.872Z,47.60
2022-09-21T22:22:49.789Z,47.80
2022-09-21T22:25:36.818Z,47.80
2022-09-21T22:28:17.301Z,47.70
2022-09-21T22:31:03.787Z,47.70
2022-09-21T22:33:51.992Z,47.80
2022-09-21T22:36:37.804Z,47.80
2022-09-21T22:39:24.869Z,47.80
2022-09-21T22:42:04.806Z,47.80
2022-09-21T22:44:51.825Z,47.70
2022-09-21T22:47:38.813Z,47.80
2022-09-21T22:50:25.845Z,47.80
2022-09-21T22:53:05.813Z,47.80
2022-09-21T22:55:46.705Z,47.80
2022-09-21T22:58:33.807Z,47.90
2022-09-21T23:01:42.787Z,47.90
2022-09-21T23:04:23.340Z,48.00
2022-09-21T23:07:09.806Z,48.00
2022-09-21T23:09:56.818Z,48.90
2022-09-21T23:12:37.184Z,48.10
2022-09-21T23:15:24.793Z,48.00
2022-09-21T23:18:04.873Z,48.10
2022-09-21T23:21:02.809Z,48.10
2022-09-21T23:23:42.949Z,48.20
2022-09-21T23:26:32.801Z,48.10
2022-09-21T23:29:24.826Z,48.30
2022-09-21T23:32:06.364Z,48.20
2022-09-21T23:34:52.801Z,48.20
2022-09-21T23:37:39.873Z,48.20
2022-09-21T23:40:19.850Z,48.30
2022-09-21T23:43:06.865Z,48.30
2022-09-21T23:45:48.801Z,48.30
2022-09-21T23:48:35.846Z,48.40
2022-09-21T23:51:16.818Z,48.60
2022-09-21T23:54:04.977Z,48.70
2022-09-21T23:56:44.960Z,48.90
2022-09-21T23:59:31.806Z,49.00
